createdAt,value
2022-08-30T00:06:46.436Z,63.9
2022-08-30T00:21:56.019Z,64.1
2022-08-30T00:37:05.150Z,64.3
2022-08-30T00:52:14.656Z,64.5
2022-08-30T01:07:23.244Z,64.8
2022-08-30T01:22:32.502Z,64.8
2022-08-30T01:37:41.665Z,65.5
2022-08-30T01:52:50.995Z,65.6
2022-08-30T02:08:00.016Z,65.7
2022-08-30T02:23:09.499Z,65.8
2022-08-30T02:38:20.500Z,65.9
2022-08-30T02:53:31.766Z,66.1
2022-08-30T03:08:40.692Z,66.2
2022-08-30T03:23:49.631Z,66.3
2022-08-30T03:38:58.900Z,66.4
2022-08-30T03:54:08.339Z,66.7
2022-08-30T04:09:17.339Z,66.8
2022-08-30T04:24:26.484Z,66.9
2022-08-30T04:39:35.567Z,66.9
2022-08-30T04:54:44.783Z,66.9
2022-08-30T05:09:55.767Z,67
2022-08-30T05:25:05.219Z,67.2
2022-08-30T05:40:15.155Z,67.1
2022-08-30T05:55:26.127Z,67.2
2022-08-30T06:10:35.853Z,67.1
2022-08-30T06:25:45.764Z,67.1
2022-08-30T06:40:55.350Z,67.2
2022-08-30T06:56:05.144Z,67.4
2022-08-30T07:11:14.354Z,67.4
2022-08-30T07:26:26.942Z,67.4
2022-08-30T07:41:36.560Z,67.5
2022-08-30T07:56:45.861Z,67.4
2022-08-30T08:11:55.492Z,67.3
2022-08-30T08:27:05.248Z,67.1
2022-08-30T08:42:14.703Z,66.9
2022-08-30T08:57:25.133Z,67
2022-08-30T09:12:35.059Z,66.8
2022-08-30T09:27:45.215Z,66.6
2022-08-30T09:42:56.882Z,66.7
2022-08-30T09:58:06.609Z,66.8
2022-08-30T10:13:16.869Z,66.8
2022-08-30T10:28:29.771Z,66.8
2022-08-30T10:43:39.492Z,66.3
2022-08-30T10:58:51.168Z,65.7
2022-08-30T11:14:06.317Z,65.3
2022-08-30T11:29:16.427Z,64.9
2022-08-30T11:44:28.938Z,64.3
2022-08-30T11:59:38.653Z,63.6
2022-08-30T12:14:49.729Z,57.4
2022-08-30T12:29:59.793Z,58.9
2022-08-30T12:45:10.617Z,58.3
2022-08-30T13:00:21.549Z,57.7
2022-08-30T13:15:31.087Z,56.7
2022-08-30T13:30:41.190Z,55.8
2022-08-30T13:45:51.827Z,55.5
2022-08-30T14:01:02.710Z,54.9
2022-08-30T14:16:29.690Z,54
2022-08-30T14:31:38.649Z,55.9
2022-08-30T14:46:47.894Z,56.1
2022-08-30T15:01:56.077Z,57.5
2022-08-30T15:17:05.363Z,55.5
2022-08-30T15:32:18.511Z,53.6
2022-08-30T15:47:27.676Z,55.7
2022-08-30T16:02:40.052Z,57.1
2022-08-30T16:17:48.800Z,57.6
2022-08-30T16:32:57.882Z,58
2022-08-30T16:48:07.353Z,57.9
2022-08-30T17:03:21.258Z,58.1
2022-08-30T17:18:32.025Z,58.4
2022-08-30T17:33:42.370Z,58.7
2022-08-30T17:49:01.725Z,58.6
2022-08-30T18:04:11.069Z,59.1
2022-08-30T18:19:21.278Z,59.3
2022-08-30T18:34:30.485Z,59.5
2022-08-30T18:49:39.578Z,59.8
2022-08-30T19:04:48.724Z,59.9
2022-08-30T19:19:57.867Z,60.1
2022-08-30T19:35:07.296Z,60.3
2022-08-30T19:50:17.176Z,60.4
2022-08-30T20:05:27.625Z,60.7
2022-08-30T20:20:37.578Z,60.8
2022-08-30T20:35:50.258Z,60.5
2022-08-30T20:50:59.498Z,60.8
2022-08-30T21:06:08.349Z,60.8
2022-08-30T21:21:17.903Z,60.7
2022-08-30T21:36:28.082Z,60.7
2022-08-30T21:51:37.142Z,60.6
2022-08-30T22:06:46.292Z,60.5
2022-08-30T22:22:02.185Z,60.4
2022-08-30T22:37:11.795Z,60.2
2022-08-30T22:52:25.799Z,60.2
2022-08-30T23:07:35.060Z,60.1
2022-08-30T23:22:44.362Z,60
2022-08-30T23:37:53.840Z,59.9
2022-08-30T23:53:02.484Z,59.9
